Capitol Logistics 260


KBOS
Logan International Airport
Boston, Massachusetts, US
KIAD
Washington Dulles International Airport
Dulles, Virginia, US

Activity Log

Date Flight Route Aircraft Duration
01/15/2020 CPX260 PATSS5 PATSS BIGGY MXE HYPER7 B763 1h 48m
12/25/2019 CPX260 BLZZR4 BLZZR BAF HYPER7 B763 1h 30m
12/11/2019 CPX260 BLZZR4 BLZZR BAF HYPER7 B763 1h 31m
11/01/2019 CPX260 BLZZR4 BLZZR NELIE J75 SBJ MXE HYPER7 B763 1h 42m
05/29/2019 CPX260 BLZZR4 BLZZR BAF HYPER7 B763 1h 20m

Route Details

Aircraft Information
Primary: Boeing 767-300BDSF
Backup: Boeing 757-200SF
Route Data
Distance: 359nm
Sched. Duration: 1h 33m
Avg. Duration: 1h 34m (+2m)
Times Flown: 5
Recm'd Route: BLZZR4 BLZZR BAF HYPER7
Planned Altitude: 30,000ft
Origin Wx: KBOS 270954Z 08011KT 2 1/2SM RA BR OVC004 07/05 A2951 RMK AO2 SLP991 P0023 T00670044
Dest. Wx: KIAD 270952Z 28015G21KT 10SM BKN060 04/M04 A2964 RMK AO2 PK WND 29026/0902 SLP038 T00391039
Notes:

Financial History
Total Freight: 473,448lbs
Average Load: 94,690lbs/flt
Fuel Used: 75,270lbs
Avg. Fuel Used: 15,054lbs/flt
Fuel Expense: $88,819
Avg. Fuel Expense: $17,764
Avg. Fuel Cost: $1.18/lbs
Total Gross Income: $626,299
Pilot Pay: $895
Total Expenses: $67,900
Total Revenue: $468,193
Average Revenue: $125,259.75